createdAt,value
2022-10-31T00:01:41.214Z,8.90
2022-10-31T00:04:27.757Z,9.50
2022-10-31T00:07:14.246Z,9.02
2022-10-31T00:10:00.487Z,8.50
2022-10-31T00:12:46.856Z,8.15
2022-10-31T00:15:34.706Z,8.65
2022-10-31T00:18:22.411Z,7.55
2022-10-31T00:21:08.652Z,8.10
2022-10-31T00:23:55.296Z,8.30
2022-10-31T00:26:41.869Z,8.02
2022-10-31T00:29:28.479Z,7.38
2022-10-31T00:32:14.977Z,7.70
2022-10-31T00:35:02.786Z,8.38
2022-10-31T00:37:48.902Z,8.77
2022-10-31T00:40:35.294Z,8.45
2022-10-31T00:43:21.452Z,8.20
2022-10-31T00:46:08.099Z,8.60
2022-10-31T00:48:54.547Z,8.60
2022-10-31T00:51:42.428Z,8.15
2022-10-31T00:54:28.656Z,8.23
2022-10-31T00:57:15.209Z,8.90
2022-10-31T01:00:01.612Z,8.73
2022-10-31T01:02:48.242Z,8.10
2022-10-31T01:05:34.843Z,8.68
2022-10-31T01:08:22.566Z,8.02
2022-10-31T01:11:11.793Z,8.35
2022-10-31T01:13:58.344Z,7.50
2022-10-31T01:16:44.932Z,8.00
2022-10-31T01:19:31.422Z,8.10
2022-10-31T01:22:17.599Z,7.50
2022-10-31T01:25:06.101Z,7.40
2022-10-31T01:27:52.311Z,7.43
2022-10-31T01:30:38.729Z,7.20
2022-10-31T01:33:25.085Z,8.13
2022-10-31T01:36:20.263Z,7.78
2022-10-31T01:39:10.600Z,7.87
2022-10-31T01:41:58.306Z,7.57
2022-10-31T01:44:55.519Z,7.83
2022-10-31T01:47:47.095Z,7.73
2022-10-31T01:50:37.799Z,7.47
2022-10-31T01:53:26.982Z,7.88
2022-10-31T01:56:14.903Z,7.93
2022-10-31T01:59:04.837Z,8.10
2022-10-31T02:01:53.326Z,7.00
2022-10-31T02:04:41.238Z,6.83
2022-10-31T02:07:32.305Z,8.57
2022-10-31T02:10:20.229Z,7.40
2022-10-31T02:13:08.762Z,7.10
2022-10-31T02:15:58.215Z,7.63
2022-10-31T02:18:44.722Z,8.70
2022-10-31T02:21:39.991Z,7.47
2022-10-31T02:24:46.764Z,8.20
2022-10-31T02:27:52.164Z,8.17
2022-10-31T02:30:44.787Z,8.20
2022-10-31T02:33:38.874Z,7.80
2022-10-31T02:36:30.522Z,7.57
2022-10-31T02:39:25.145Z,7.17
2022-10-31T02:42:18.479Z,8.17
2022-10-31T02:45:10.683Z,8.07
2022-10-31T02:48:00.733Z,7.47
2022-10-31T02:50:54.576Z,7.50
2022-10-31T02:53:41.528Z,7.87
2022-10-31T02:56:28.167Z,7.90
2022-10-31T02:59:14.394Z,8.03
2022-10-31T03:02:18.068Z,8.23
2022-10-31T03:05:19.463Z,7.37
2022-10-31T03:08:14.215Z,6.67
2022-10-31T03:11:01.963Z,7.37
2022-10-31T03:13:53.014Z,7.50
2022-10-31T03:16:47.276Z,7.20
2022-10-31T03:19:38.013Z,7.40
2022-10-31T03:22:27.094Z,7.13
2022-10-31T03:25:16.106Z,7.60
2022-10-31T03:28:04.742Z,7.50
2022-10-31T03:30:53.429Z,7.57
2022-10-31T03:33:42.508Z,7.93
2022-10-31T03:36:31.023Z,8.20
2022-10-31T03:39:20.719Z,7.70
2022-10-31T03:42:12.232Z,6.97
2022-10-31T03:45:02.773Z,7.70
2022-10-31T03:47:49.721Z,8.53
2022-10-31T03:50:45.532Z,7.33
2022-10-31T03:53:36.142Z,8.00
2022-10-31T03:56:28.658Z,8.67
2022-10-31T03:59:20.255Z,7.90
2022-10-31T04:02:11.900Z,8.20
2022-10-31T04:04:59.131Z,6.90
2022-10-31T04:07:49.609Z,7.47
2022-10-31T04:10:38.846Z,7.20
2022-10-31T04:13:28.898Z,7.53
2022-10-31T04:16:17.648Z,8.07
2022-10-31T04:19:03.791Z,7.63
2022-10-31T04:21:50.186Z,7.30
2022-10-31T04:24:37.612Z,8.63
2022-10-31T04:27:24.399Z,8.13
2022-10-31T04:30:11.627Z,8.60
2022-10-31T04:32:59.551Z,7.60
2022-10-31T04:35:46.079Z,7.87
2022-10-31T04:38:32.361Z,8.43
2022-10-31T04:41:18.595Z,7.97
2022-10-31T04:44:04.854Z,8.03
2022-10-31T04:46:51.128Z,8.00
2022-10-31T04:49:38.860Z,7.93
2022-10-31T04:52:25.348Z,7.90
2022-10-31T04:55:12.878Z,7.00
2022-10-31T04:57:59.579Z,8.13
2022-10-31T05:00:46.239Z,7.90
2022-10-31T05:03:32.608Z,7.53
2022-10-31T05:06:20.375Z,8.00
2022-10-31T05:09:06.707Z,7.73
2022-10-31T05:11:53.389Z,7.33
2022-10-31T05:14:40.689Z,7.70
2022-10-31T05:17:28.720Z,7.10
2022-10-31T05:20:16.866Z,7.37
2022-10-31T05:23:04.581Z,7.57
2022-10-31T05:25:50.734Z,7.60
2022-10-31T05:28:37.249Z,7.60
2022-10-31T05:31:23.508Z,7.53
2022-10-31T05:34:09.891Z,7.90
2022-10-31T05:36:56.109Z,7.43
2022-10-31T05:39:43.909Z,8.30
2022-10-31T05:42:30.325Z,7.43
2022-10-31T05:45:19.076Z,7.33
2022-10-31T05:48:06.548Z,7.50
2022-10-31T05:50:53.074Z,7.30
2022-10-31T05:53:39.251Z,7.50
2022-10-31T05:56:27.199Z,7.40
2022-10-31T05:59:13.701Z,7.60
2022-10-31T06:02:00.262Z,7.33
2022-10-31T06:04:46.628Z,8.40
2022-10-31T06:07:37.552Z,7.93
2022-10-31T06:10:24.414Z,7.57
2022-10-31T06:13:12.571Z,7.90
2022-10-31T06:15:58.757Z,7.10
2022-10-31T06:18:45.283Z,6.70
2022-10-31T06:21:31.604Z,7.30
2022-10-31T06:24:18.195Z,7.00
2022-10-31T06:27:04.792Z,6.90
2022-10-31T06:29:52.595Z,7.00
2022-10-31T06:32:38.840Z,6.80
2022-10-31T06:35:25.293Z,10.80
2022-10-31T06:38:11.891Z,7.17
2022-10-31T06:40:58.255Z,6.77
2022-10-31T06:43:44.556Z,7.17
2022-10-31T06:46:32.533Z,6.60
2022-10-31T06:49:18.800Z,6.93
2022-10-31T06:52:05.600Z,6.83
2022-10-31T06:54:52.068Z,8.13
2022-10-31T06:57:38.531Z,7.43
2022-10-31T07:00:25.506Z,7.37
2022-10-31T07:03:16.378Z,7.53
2022-10-31T07:06:02.555Z,8.43
2022-10-31T07:08:49.665Z,7.90
2022-10-31T07:11:35.926Z,7.60
2022-10-31T07:14:22.570Z,7.50
2022-10-31T07:17:08.921Z,7.50
2022-10-31T07:19:56.693Z,6.30
2022-10-31T07:22:45.625Z,7.53
2022-10-31T07:25:34.576Z,8.05
2022-10-31T07:28:20.839Z,7.10
2022-10-31T07:31:07.434Z,6.88
2022-10-31T07:33:53.740Z,6.78
2022-10-31T07:36:41.829Z,6.90
2022-10-31T07:39:28.180Z,7.00
2022-10-31T07:42:14.742Z,7.40
2022-10-31T07:45:01.058Z,7.43
2022-10-31T07:47:49.108Z,7.13
2022-10-31T07:50:35.767Z,7.18
2022-10-31T07:53:23.665Z,7.82
2022-10-31T07:56:10.271Z,7.25
2022-10-31T07:58:56.750Z,7.07
2022-10-31T08:01:43.249Z,7.15
2022-10-31T08:04:29.656Z,7.18
2022-10-31T08:07:16.254Z,7.47
2022-10-31T08:10:04.058Z,7.07
2022-10-31T08:12:57.279Z,7.32
2022-10-31T08:15:43.915Z,7.38
2022-10-31T08:18:30.128Z,6.50
2022-10-31T08:21:16.519Z,8.05
2022-10-31T08:24:02.722Z,7.20
2022-10-31T08:26:50.695Z,7.25
2022-10-31T08:29:37.406Z,7.55
2022-10-31T08:32:23.895Z,7.18
2022-10-31T08:35:10.294Z,7.72
2022-10-31T08:37:57.038Z,7.40
2022-10-31T08:40:43.575Z,8.30
2022-10-31T08:43:31.116Z,7.50
2022-10-31T08:46:17.614Z,7.60
2022-10-31T08:49:04.039Z,8.27
2022-10-31T08:51:50.369Z,8.88
2022-10-31T08:54:36.673Z,9.32
2022-10-31T08:57:22.891Z,8.43
2022-10-31T09:00:11.983Z,7.78
2022-10-31T09:02:59.474Z,9.95
2022-10-31T09:05:46.892Z,9.35
2022-10-31T09:08:33.938Z,9.20
2022-10-31T09:11:20.393Z,9.07
2022-10-31T09:14:06.912Z,10.57
2022-10-31T09:16:54.787Z,10.38
2022-10-31T09:19:41.148Z,10.18
2022-10-31T09:22:27.656Z,12.07
2022-10-31T09:25:14.303Z,12.98
2022-10-31T09:28:01.883Z,12.68
2022-10-31T09:30:49.592Z,15.57
2022-10-31T09:33:38.115Z,16.90
2022-10-31T09:36:24.559Z,17.75
2022-10-31T09:39:11.159Z,17.17
2022-10-31T09:42:11.053Z,17.50
2022-10-31T09:45:07.008Z,16.70
2022-10-31T09:48:07.804Z,15.90
2022-10-31T09:51:00.452Z,15.48
2022-10-31T09:53:51.211Z,15.65
2022-10-31T09:56:38.786Z,15.73
2022-10-31T09:59:31.028Z,15.80
2022-10-31T10:02:23.662Z,17.20
2022-10-31T10:05:13.521Z,15.55
2022-10-31T10:08:21.719Z,15.80
2022-10-31T10:11:28.135Z,16.27
2022-10-31T10:14:29.108Z,15.77
2022-10-31T10:17:27.869Z,15.23
2022-10-31T10:20:26.180Z,16.58
2022-10-31T10:23:35.069Z,16.25
2022-10-31T10:26:23.422Z,15.68
2022-10-31T10:29:27.602Z,16.40
2022-10-31T10:32:20.903Z,15.88
2022-10-31T10:35:19.214Z,17.02
2022-10-31T10:38:16.935Z,15.88
2022-10-31T10:41:11.787Z,16.40
2022-10-31T10:43:58.395Z,17.15
2022-10-31T10:47:06.940Z,16.35
2022-10-31T10:49:54.413Z,17.13
2022-10-31T10:52:50.759Z,16.90
2022-10-31T10:55:44.416Z,17.58
2022-10-31T10:58:32.576Z,15.50
2022-10-31T11:01:18.875Z,15.18
2022-10-31T11:04:13.338Z,16.15
2022-10-31T11:07:05.992Z,17.85
2022-10-31T11:09:52.405Z,18.50
2022-10-31T11:12:38.950Z,17.85
2022-10-31T11:15:28.263Z,18.42
2022-10-31T11:18:22.564Z,19.40
2022-10-31T11:21:23.143Z,17.23
2022-10-31T11:24:17.580Z,17.80
2022-10-31T11:27:17.380Z,17.52
2022-10-31T11:30:08.290Z,18.92
2022-10-31T11:32:56.019Z,17.60
2022-10-31T11:35:42.531Z,19.08
2022-10-31T11:38:35.428Z,21.10
2022-10-31T11:41:28.840Z,20.20
2022-10-31T11:44:18.195Z,19.65
2022-10-31T11:47:06.933Z,19.45
2022-10-31T11:49:55.414Z,19.40
2022-10-31T11:52:42.808Z,19.85
2022-10-31T11:55:35.369Z,20.75
2022-10-31T11:58:23.321Z,19.60
2022-10-31T12:01:26.221Z,20.20
2022-10-31T12:04:14.444Z,19.15
2022-10-31T12:07:02.484Z,20.45
2022-10-31T12:09:48.819Z,20.13
2022-10-31T12:12:58.796Z,19.85
2022-10-31T12:15:54.104Z,20.23
2022-10-31T12:18:58.190Z,20.02
2022-10-31T12:22:01.731Z,21.23
2022-10-31T12:25:09.715Z,18.52
2022-10-31T12:28:15.959Z,19.52
2022-10-31T12:31:14.976Z,21.55
2022-10-31T12:34:19.917Z,20.23
2022-10-31T12:37:16.166Z,20.33
2022-10-31T12:40:24.155Z,20.23
2022-10-31T12:43:26.419Z,20.52
2022-10-31T12:46:21.975Z,21.40
2022-10-31T12:49:20.212Z,19.63
2022-10-31T12:52:21.316Z,21.10
2022-10-31T12:55:31.394Z,20.13
2022-10-31T12:58:25.051Z,19.08
2022-10-31T13:01:16.519Z,20.15
2022-10-31T13:04:07.494Z,21.02
2022-10-31T13:07:00.210Z,20.85
2022-10-31T13:09:52.956Z,21.23
2022-10-31T13:12:42.021Z,22.15
2022-10-31T13:15:33.180Z,22.33
2022-10-31T13:18:27.222Z,20.88
2022-10-31T13:21:20.584Z,20.75
2022-10-31T13:24:15.631Z,20.77
2022-10-31T13:27:05.110Z,20.73
2022-10-31T13:30:02.908Z,21.65
2022-10-31T13:32:52.680Z,20.15
2022-10-31T13:35:44.986Z,20.63
2022-10-31T13:38:37.459Z,20.08
2022-10-31T13:41:34.562Z,25.15
2022-10-31T13:44:24.882Z,20.50
2022-10-31T13:47:26.550Z,21.52
2022-10-31T13:50:24.392Z,21.92
2022-10-31T13:53:16.439Z,21.70
2022-10-31T13:56:11.783Z,20.58
2022-10-31T13:59:02.913Z,22.05
2022-10-31T14:01:52.967Z,20.88
2022-10-31T14:04:48.831Z,21.38
2022-10-31T14:07:35.568Z,21.92
2022-10-31T14:10:27.528Z,22.10
2022-10-31T14:13:17.947Z,22.25
2022-10-31T14:16:06.875Z,21.80
2022-10-31T14:19:00.951Z,21.60
2022-10-31T14:21:49.608Z,22.05
2022-10-31T14:24:38.312Z,22.50
2022-10-31T14:27:48.033Z,21.88
2022-10-31T14:30:34.891Z,22.20
2022-10-31T14:33:22.348Z,21.13
2022-10-31T14:36:18.909Z,21.55
2022-10-31T14:39:13.539Z,22.40
2022-10-31T14:42:14.499Z,23.10
2022-10-31T14:45:30.432Z,23.45
2022-10-31T14:48:38.784Z,21.60
2022-10-31T14:51:31.535Z,24.65
2022-10-31T14:54:25.219Z,24.13
2022-10-31T14:57:18.583Z,24.50
2022-10-31T15:00:08.278Z,23.08
2022-10-31T15:03:08.034Z,23.35
2022-10-31T15:05:57.508Z,21.38
2022-10-31T15:08:47.556Z,23.35
2022-10-31T15:11:39.928Z,22.92
2022-10-31T15:14:28.744Z,24.40
2022-10-31T15:17:15.811Z,24.00
2022-10-31T15:20:02.592Z,23.95
2022-10-31T15:22:49.165Z,25.38
2022-10-31T15:25:36.820Z,23.95
2022-10-31T15:28:26.267Z,25.70
2022-10-31T15:31:17.325Z,24.70
2022-10-31T15:34:07.320Z,25.60
2022-10-31T15:36:53.724Z,26.90
2022-10-31T15:39:40.847Z,28.25
2022-10-31T15:42:31.615Z,27.45
2022-10-31T15:45:23.664Z,29.77
2022-10-31T15:48:19.037Z,31.05
2022-10-31T15:51:05.885Z,34.90
2022-10-31T15:53:55.697Z,32.65
2022-10-31T15:56:45.683Z,32.88
2022-10-31T15:59:33.007Z,35.92
2022-10-31T16:02:24.451Z,35.08
2022-10-31T16:05:18.654Z,34.55
2022-10-31T16:08:05.956Z,35.40
2022-10-31T16:10:52.583Z,33.53
2022-10-31T16:13:42.785Z,35.30
2022-10-31T16:16:35.628Z,35.78
2022-10-31T16:19:26.507Z,36.72
2022-10-31T16:22:15.872Z,34.67
2022-10-31T16:25:07.047Z,34.17
2022-10-31T16:27:55.759Z,35.45
2022-10-31T16:30:48.247Z,36.53
2022-10-31T16:33:37.131Z,36.28
2022-10-31T16:36:39.327Z,35.17
2022-10-31T16:39:25.564Z,35.15
2022-10-31T16:42:12.256Z,35.55
2022-10-31T16:44:58.608Z,35.03
2022-10-31T16:47:45.115Z,34.07
2022-10-31T16:50:31.161Z,32.47
2022-10-31T16:53:19.318Z,36.87
2022-10-31T16:56:06.914Z,35.67
2022-10-31T16:58:53.532Z,36.53
2022-10-31T17:01:41.626Z,34.27
2022-10-31T17:04:27.964Z,34.20
2022-10-31T17:07:15.561Z,34.50
2022-10-31T17:10:03.523Z,34.63
2022-10-31T17:12:51.486Z,34.28
2022-10-31T17:15:45.338Z,33.47
2022-10-31T17:18:32.439Z,31.37
2022-10-31T17:21:22.987Z,33.50
2022-10-31T17:24:14.162Z,31.87
2022-10-31T17:27:01.764Z,32.83
2022-10-31T17:29:49.001Z,31.03
2022-10-31T17:32:35.449Z,28.83
2022-10-31T17:35:22.255Z,29.50
2022-10-31T17:38:08.720Z,29.90
2022-10-31T17:40:54.913Z,27.13
2022-10-31T17:43:42.886Z,29.57
2022-10-31T17:46:29.380Z,30.27
2022-10-31T17:49:15.728Z,29.73
2022-10-31T17:52:02.001Z,29.17
2022-10-31T17:54:48.528Z,27.53
2022-10-31T17:57:35.905Z,28.23
2022-10-31T18:00:24.828Z,27.07
2022-10-31T18:03:11.221Z,27.37
2022-10-31T18:05:59.395Z,27.08
2022-10-31T18:08:46.149Z,24.92
2022-10-31T18:11:33.255Z,25.05
2022-10-31T18:14:19.456Z,24.80
2022-10-31T18:17:07.591Z,26.87
2022-10-31T18:19:54.405Z,25.93
2022-10-31T18:22:40.667Z,25.17
2022-10-31T18:25:26.962Z,24.80
2022-10-31T18:28:13.610Z,26.63
2022-10-31T18:31:00.472Z,29.23
2022-10-31T18:33:48.591Z,28.27
2022-10-31T18:36:35.570Z,29.57
2022-10-31T18:39:22.136Z,29.23
2022-10-31T18:42:08.607Z,29.63
2022-10-31T18:44:55.246Z,28.63
2022-10-31T18:47:41.364Z,29.33
2022-10-31T18:50:29.147Z,28.47
2022-10-31T18:53:15.675Z,27.40
2022-10-31T18:56:02.937Z,27.37
2022-10-31T18:58:49.691Z,27.87
2022-10-31T19:01:36.543Z,27.63
2022-10-31T19:04:23.441Z,26.40
2022-10-31T19:07:11.052Z,27.83
2022-10-31T19:09:57.387Z,27.50
2022-10-31T19:12:44.242Z,26.87
2022-10-31T19:15:30.707Z,27.30
2022-10-31T19:18:16.973Z,28.97
2022-10-31T19:21:07.153Z,28.47
2022-10-31T19:23:57.253Z,28.37
2022-10-31T19:26:43.749Z,28.47
2022-10-31T19:29:30.422Z,29.03
2022-10-31T19:32:16.772Z,28.43
2022-10-31T19:35:05.508Z,28.53
2022-10-31T19:37:51.914Z,27.63
2022-10-31T19:40:40.070Z,28.43
2022-10-31T19:43:26.410Z,26.87
2022-10-31T19:46:22.264Z,27.97
2022-10-31T19:49:19.763Z,27.87
2022-10-31T19:52:06.529Z,28.57
2022-10-31T19:54:53.254Z,28.70
2022-10-31T19:58:00.831Z,28.47
2022-10-31T20:00:47.439Z,28.10
2022-10-31T20:03:34.332Z,30.33
2022-10-31T20:06:24.227Z,28.90
2022-10-31T20:09:13.549Z,29.60
2022-10-31T20:12:00.142Z,28.37
2022-10-31T20:14:52.688Z,27.80
2022-10-31T20:17:39.192Z,28.10
2022-10-31T20:20:25.826Z,30.13
2022-10-31T20:23:12.119Z,27.80
2022-10-31T20:25:58.734Z,35.40
2022-10-31T20:28:46.530Z,28.23
2022-10-31T20:31:36.870Z,27.33
2022-10-31T20:34:23.291Z,28.30
2022-10-31T20:37:09.935Z,29.38
2022-10-31T20:39:56.739Z,30.10
2022-10-31T20:42:43.106Z,28.83
2022-10-31T20:45:29.791Z,29.07
2022-10-31T20:48:17.686Z,27.85
2022-10-31T20:51:06.197Z,29.50
2022-10-31T20:53:53.721Z,27.98
2022-10-31T20:56:40.104Z,27.88
2022-10-31T20:59:26.303Z,27.97
2022-10-31T21:02:12.832Z,27.20
2022-10-31T21:05:01.741Z,27.67
2022-10-31T21:07:48.163Z,51.77
2022-10-31T21:10:34.594Z,30.53
2022-10-31T21:13:20.930Z,28.23
2022-10-31T21:16:10.279Z,29.77
2022-10-31T21:18:56.863Z,28.63
2022-10-31T21:21:44.921Z,28.97
2022-10-31T21:24:31.279Z,29.13
2022-10-31T21:27:17.756Z,29.07
2022-10-31T21:30:04.343Z,27.00
2022-10-31T21:32:50.999Z,26.50
2022-10-31T21:35:37.503Z,27.00
2022-10-31T21:38:25.271Z,26.73
2022-10-31T21:41:13.779Z,26.73
2022-10-31T21:44:00.786Z,27.10
2022-10-31T21:46:48.023Z,26.23
2022-10-31T21:49:34.493Z,28.97
2022-10-31T21:52:20.813Z,27.67
2022-10-31T21:55:08.425Z,27.00
2022-10-31T21:57:54.600Z,28.20
2022-10-31T22:00:41.608Z,28.23
2022-10-31T22:03:27.745Z,27.50
2022-10-31T22:06:15.436Z,26.53
2022-10-31T22:09:04.842Z,26.73
2022-10-31T22:11:52.944Z,27.13
2022-10-31T22:14:39.323Z,26.53
2022-10-31T22:17:25.796Z,27.50
2022-10-31T22:20:12.620Z,27.43
2022-10-31T22:22:59.019Z,26.57
2022-10-31T22:25:45.353Z,26.17
2022-10-31T22:28:34.027Z,27.23
2022-10-31T22:31:24.650Z,26.37
2022-10-31T22:34:11.920Z,26.43
2022-10-31T22:36:58.407Z,27.67
2022-10-31T22:39:44.708Z,25.90
2022-10-31T22:42:30.776Z,24.90
2022-10-31T22:45:18.600Z,25.80
2022-10-31T22:48:05.625Z,25.33
2022-10-31T22:50:52.116Z,25.70
2022-10-31T22:53:39.983Z,24.37
2022-10-31T22:56:28.238Z,24.13
2022-10-31T22:59:15.983Z,24.87
2022-10-31T23:02:06.020Z,25.03
2022-10-31T23:04:54.707Z,26.60
2022-10-31T23:07:41.404Z,25.53
2022-10-31T23:10:35.685Z,24.17
2022-10-31T23:13:40.230Z,27.10
2022-10-31T23:16:27.057Z,26.43
2022-10-31T23:19:17.676Z,24.27
2022-10-31T23:22:04.773Z,25.87
2022-10-31T23:24:51.588Z,25.93
2022-10-31T23:27:37.727Z,27.97
2022-10-31T23:30:24.284Z,26.53
2022-10-31T23:33:10.608Z,26.20
2022-10-31T23:35:58.471Z,26.40
2022-10-31T23:38:44.710Z,26.57
2022-10-31T23:41:31.309Z,26.63
2022-10-31T23:44:17.495Z,27.77
2022-10-31T23:47:04.771Z,26.70
2022-10-31T23:49:52.187Z,26.30
2022-10-31T23:52:40.104Z,27.17
2022-10-31T23:55:26.389Z,26.73
2022-10-31T23:58:12.880Z,26.93
